createdAt,value
2018-01-23T00:01:25.304Z,7.00
2018-01-23T00:03:51.516Z,6.70
2018-01-23T00:06:17.756Z,6.70
2018-01-23T00:08:43.997Z,6.70
2018-01-23T00:11:11.052Z,6.70
2018-01-23T00:13:37.361Z,6.80
2018-01-23T00:16:03.596Z,6.90
2018-01-23T00:18:29.843Z,6.60
2018-01-23T00:20:56.045Z,6.50
2018-01-23T00:23:22.291Z,6.30
2018-01-23T00:25:48.518Z,6.50
2018-01-23T00:28:14.774Z,6.40
2018-01-23T00:30:41.659Z,6.40
2018-01-23T00:33:08.273Z,6.40
2018-01-23T00:35:34.480Z,6.40
2018-01-23T00:38:00.726Z,6.40
2018-01-23T00:40:26.930Z,6.40
2018-01-23T00:42:53.138Z,6.40
2018-01-23T00:45:19.326Z,6.40
2018-01-23T00:47:45.908Z,6.20
2018-01-23T00:50:12.164Z,6.30
2018-01-23T00:52:38.400Z,6.30
2018-01-23T00:55:04.636Z,6.30
2018-01-23T00:57:31.285Z,6.20
2018-01-23T00:59:57.562Z,6.20
2018-01-23T01:02:23.767Z,6.10
2018-01-23T01:04:50.651Z,6.10
2018-01-23T01:07:16.843Z,6.20
2018-01-23T01:09:43.080Z,6.40
2018-01-23T01:12:09.276Z,6.40
2018-01-23T01:14:35.538Z,6.20
2018-01-23T01:17:01.777Z,6.20
2018-01-23T01:19:27.962Z,6.30
2018-01-23T01:21:54.233Z,6.30
2018-01-23T01:24:20.449Z,6.30
2018-01-23T01:26:46.681Z,6.10
2018-01-23T01:29:12.903Z,6.00
2018-01-23T01:31:39.140Z,6.10
2018-01-23T01:34:05.376Z,6.20
2018-01-23T01:36:31.569Z,6.10
2018-01-23T01:38:57.793Z,6.10
2018-01-23T01:41:24.817Z,6.20
2018-01-23T01:43:51.423Z,6.30
2018-01-23T01:46:17.656Z,6.30
2018-01-23T01:48:52.013Z,6.20
2018-01-23T01:51:18.622Z,6.20
2018-01-23T01:53:45.205Z,6.30
2018-01-23T01:56:11.471Z,6.30
2018-01-23T01:58:37.675Z,6.20
2018-01-23T02:01:04.424Z,6.00
2018-01-23T02:03:30.747Z,6.10
2018-01-23T02:05:56.971Z,6.30
2018-01-23T02:08:23.193Z,6.10
2018-01-23T02:10:49.414Z,5.90
2018-01-23T02:13:15.653Z,5.90
2018-01-23T02:15:41.862Z,6.00
2018-01-23T02:18:08.111Z,6.10
2018-01-23T02:20:34.357Z,6.20
2018-01-23T02:23:00.586Z,6.40
2018-01-23T02:25:26.900Z,6.30
2018-01-23T02:27:53.274Z,6.30
2018-01-23T02:30:19.526Z,6.50
2018-01-23T02:32:45.752Z,6.40
2018-01-23T02:35:12.357Z,6.40
2018-01-23T02:37:38.567Z,6.40
2018-01-23T02:40:04.834Z,6.50
2018-01-23T02:42:31.448Z,6.30
2018-01-23T02:44:57.658Z,6.30
2018-01-23T02:47:23.905Z,6.40
2018-01-23T02:49:50.141Z,6.40
2018-01-23T02:52:16.375Z,6.60
2018-01-23T02:54:42.611Z,6.20
2018-01-23T02:57:09.199Z,5.90
2018-01-23T02:59:35.424Z,5.90
2018-01-23T03:02:01.680Z,5.80
2018-01-23T03:04:27.886Z,5.80
2018-01-23T03:06:54.107Z,6.00
2018-01-23T03:09:20.308Z,6.00
2018-01-23T03:11:46.541Z,6.00
2018-01-23T03:14:12.744Z,6.10
2018-01-23T03:16:38.963Z,6.10
2018-01-23T03:19:05.262Z,5.90
2018-01-23T03:21:31.529Z,5.90
2018-01-23T03:23:58.131Z,6.10
2018-01-23T03:26:24.348Z,6.10
2018-01-23T03:28:50.570Z,6.10
2018-01-23T03:31:16.790Z,6.10
2018-01-23T03:33:42.996Z,6.20
2018-01-23T03:36:09.299Z,6.30
2018-01-23T03:38:35.893Z,6.30
2018-01-23T03:41:02.161Z,6.30
2018-01-23T03:43:28.371Z,6.40
2018-01-23T03:45:54.605Z,6.50
2018-01-23T03:48:20.835Z,6.50
2018-01-23T03:50:47.092Z,6.50
2018-01-23T03:53:13.713Z,6.50
2018-01-23T03:55:40.395Z,6.60
2018-01-23T03:58:06.620Z,6.60
2018-01-23T04:00:32.849Z,6.60
2018-01-23T04:02:59.064Z,6.50
2018-01-23T04:05:25.326Z,6.60
2018-01-23T04:07:51.535Z,6.60
2018-01-23T04:10:17.760Z,6.50
2018-01-23T04:12:43.971Z,6.50
2018-01-23T04:15:10.200Z,6.30
2018-01-23T04:17:36.386Z,6.30
2018-01-23T04:20:02.621Z,6.40
2018-01-23T04:22:28.832Z,6.30
2018-01-23T04:24:55.076Z,6.20
2018-01-23T04:27:21.307Z,6.40
2018-01-23T04:29:47.497Z,6.40
2018-01-23T04:32:13.733Z,6.40
2018-01-23T04:34:39.954Z,6.50
2018-01-23T04:37:06.213Z,6.40
2018-01-23T04:39:32.465Z,6.30
2018-01-23T04:41:59.061Z,6.40
2018-01-23T04:44:25.302Z,6.40
2018-01-23T04:46:51.506Z,6.50
2018-01-23T04:49:17.765Z,6.30
2018-01-23T04:51:43.963Z,6.30
2018-01-23T04:54:10.196Z,6.30
2018-01-23T04:56:36.402Z,6.20
2018-01-23T04:59:02.675Z,6.10
2018-01-23T05:01:28.867Z,6.20
2018-01-23T05:03:55.084Z,6.30
2018-01-23T05:06:22.157Z,6.20
2018-01-23T05:08:48.381Z,6.30
2018-01-23T05:11:14.680Z,6.10
2018-01-23T05:13:40.891Z,6.10
2018-01-23T05:16:07.476Z,6.20
2018-01-23T05:18:33.697Z,6.20
2018-01-23T05:20:59.930Z,6.30
2018-01-23T05:23:26.151Z,6.30
2018-01-23T05:25:52.396Z,6.40
2018-01-23T05:28:18.650Z,6.50
2018-01-23T05:30:45.232Z,6.40
2018-01-23T05:33:11.466Z,6.40
2018-01-23T05:35:37.720Z,6.40
2018-01-23T05:38:03.978Z,6.40
2018-01-23T05:40:30.607Z,6.40
2018-01-23T05:42:56.830Z,6.40
2018-01-23T05:45:24.018Z,6.40
2018-01-23T05:47:50.303Z,6.40
2018-01-23T05:50:16.548Z,6.40
2018-01-23T05:52:42.751Z,6.30
2018-01-23T05:55:08.964Z,6.30
2018-01-23T05:57:35.200Z,6.40
2018-01-23T06:00:01.439Z,6.20
2018-01-23T06:02:27.639Z,6.10
2018-01-23T06:04:53.889Z,6.20
2018-01-23T06:07:20.132Z,6.20
2018-01-23T06:09:46.388Z,6.20
2018-01-23T06:12:12.647Z,6.20
2018-01-23T06:14:38.852Z,6.30
2018-01-23T06:17:05.066Z,6.20
2018-01-23T06:19:31.682Z,6.10
2018-01-23T06:21:57.916Z,6.10
2018-01-23T06:24:24.197Z,6.10
2018-01-23T06:26:50.388Z,6.10
2018-01-23T06:29:17.036Z,6.00
2018-01-23T06:31:43.242Z,6.00
2018-01-23T06:34:09.831Z,6.20
2018-01-23T06:36:36.054Z,6.10
2018-01-23T06:39:02.304Z,6.00
2018-01-23T06:41:28.954Z,6.00
2018-01-23T06:43:55.150Z,6.00
2018-01-23T06:46:21.390Z,5.90
2018-01-23T06:48:47.621Z,5.80
2018-01-23T06:51:13.803Z,5.80
2018-01-23T06:53:40.048Z,5.80
2018-01-23T06:56:06.279Z,5.90
2018-01-23T06:58:32.495Z,5.80
2018-01-23T07:00:59.562Z,5.80
2018-01-23T07:03:25.800Z,5.70
2018-01-23T07:05:52.024Z,5.70
2018-01-23T07:08:19.720Z,5.80
2018-01-23T07:10:45.960Z,5.90
2018-01-23T07:13:12.524Z,6.00
2018-01-23T07:15:38.784Z,6.00
2018-01-23T07:18:05.049Z,6.10
2018-01-23T07:20:31.199Z,6.10
2018-01-23T07:22:57.817Z,6.00
2018-01-23T07:25:24.067Z,6.10
2018-01-23T07:27:50.338Z,6.20
2018-01-23T07:30:16.582Z,6.30
2018-01-23T07:32:42.913Z,6.40
2018-01-23T07:35:09.128Z,6.40
2018-01-23T07:37:35.328Z,6.30
2018-01-23T07:40:01.585Z,6.30
2018-01-23T07:42:27.816Z,6.20
2018-01-23T07:44:54.073Z,6.30
2018-01-23T07:47:20.349Z,6.40
2018-01-23T07:49:47.816Z,6.50
2018-01-23T07:52:15.531Z,6.50
2018-01-23T07:54:41.769Z,6.60
2018-01-23T07:57:08.015Z,6.50
2018-01-23T07:59:34.257Z,6.50
2018-01-23T08:02:00.490Z,6.40
2018-01-23T08:04:26.742Z,6.20
2018-01-23T08:06:52.993Z,6.30
2018-01-23T08:09:19.197Z,6.30
2018-01-23T08:11:45.403Z,6.30
2018-01-23T08:14:11.657Z,6.20
2018-01-23T08:16:37.865Z,6.20
2018-01-23T08:19:06.951Z,6.30
2018-01-23T08:21:33.210Z,6.60
2018-01-23T08:23:59.819Z,6.70
2018-01-23T08:26:26.085Z,6.80
2018-01-23T08:28:52.358Z,7.00
2018-01-23T08:31:18.584Z,7.10
2018-01-23T08:33:44.811Z,7.00
2018-01-23T08:36:11.109Z,7.20
2018-01-23T08:38:37.711Z,7.10
2018-01-23T08:41:03.971Z,7.20
2018-01-23T08:43:30.545Z,7.30
2018-01-23T08:45:56.762Z,7.30
2018-01-23T08:48:23.000Z,7.30
2018-01-23T08:50:49.199Z,7.40
2018-01-23T08:53:15.438Z,7.40
2018-01-23T08:55:42.019Z,7.40
2018-01-23T08:58:08.258Z,7.40
2018-01-23T09:00:34.561Z,7.40
2018-01-23T09:03:00.791Z,7.50
2018-01-23T09:05:27.005Z,7.70
2018-01-23T09:07:53.244Z,7.90
2018-01-23T09:10:19.467Z,7.80
2018-01-23T09:12:45.670Z,8.00
2018-01-23T09:15:11.896Z,8.10
2018-01-23T09:17:38.112Z,8.30
2018-01-23T09:20:04.362Z,8.10
2018-01-23T09:22:30.575Z,8.00
2018-01-23T09:24:56.853Z,8.10
2018-01-23T09:27:23.088Z,7.90
2018-01-23T09:29:49.289Z,8.00
2018-01-23T09:32:15.503Z,8.00
2018-01-23T09:34:41.722Z,8.00
2018-01-23T09:37:08.324Z,7.90
2018-01-23T09:39:34.544Z,7.90
2018-01-23T09:42:00.758Z,8.10
2018-01-23T09:44:27.013Z,8.10
2018-01-23T09:46:53.233Z,8.10
2018-01-23T09:49:19.451Z,8.30
2018-01-23T09:51:45.682Z,8.40
2018-01-23T09:54:11.931Z,8.40
2018-01-23T09:56:38.177Z,8.30
2018-01-23T09:59:04.777Z,8.40
2018-01-23T10:01:31.037Z,8.40
2018-01-23T10:03:57.252Z,8.50
2018-01-23T10:06:23.495Z,8.70
2018-01-23T10:08:49.699Z,9.00
2018-01-23T10:11:15.953Z,9.30
2018-01-23T10:13:42.215Z,9.90
2018-01-23T10:16:08.479Z,10.80
2018-01-23T10:18:34.704Z,11.50
2018-01-23T10:21:00.968Z,12.50
2018-01-23T10:23:27.661Z,12.30
2018-01-23T10:25:53.937Z,12.30
2018-01-23T10:28:20.188Z,12.50
2018-01-23T10:30:47.202Z,12.70
2018-01-23T10:33:14.415Z,14.20
2018-01-23T10:35:41.636Z,14.20
2018-01-23T10:38:07.955Z,14.60
2018-01-23T10:40:34.182Z,13.50
2018-01-23T10:43:00.432Z,12.40
2018-01-23T10:45:26.650Z,12.10
2018-01-23T10:47:52.880Z,11.70
2018-01-23T10:50:19.175Z,10.70
2018-01-23T10:52:45.793Z,9.90
2018-01-23T10:55:12.055Z,9.90
2018-01-23T10:57:38.681Z,9.10
2018-01-23T11:00:05.328Z,8.90
2018-01-23T11:02:32.011Z,8.90
2018-01-23T11:04:58.251Z,8.90
2018-01-23T11:07:24.542Z,8.80
2018-01-23T11:09:50.738Z,8.80
2018-01-23T11:12:16.964Z,8.60
2018-01-23T11:14:43.198Z,8.50
2018-01-23T11:17:09.449Z,8.40
2018-01-23T11:19:35.705Z,8.90
2018-01-23T11:22:01.946Z,9.60
2018-01-23T11:24:28.228Z,9.90
2018-01-23T11:26:54.439Z,9.90
2018-01-23T11:29:21.110Z,9.60
2018-01-23T11:31:47.332Z,9.60
2018-01-23T11:34:13.555Z,9.60
2018-01-23T11:36:39.793Z,9.80
2018-01-23T11:39:05.984Z,10.10
2018-01-23T11:41:32.565Z,9.90
2018-01-23T11:43:58.789Z,9.90
2018-01-23T11:46:25.079Z,9.80
2018-01-23T11:48:51.653Z,9.90
2018-01-23T11:51:17.928Z,9.90
2018-01-23T11:53:44.233Z,9.70
2018-01-23T11:56:10.462Z,9.40
2018-01-23T11:58:36.703Z,9.20
2018-01-23T12:01:02.936Z,9.00
2018-01-23T12:03:29.177Z,9.00
2018-01-23T12:05:55.396Z,9.10
2018-01-23T12:08:21.678Z,9.30
2018-01-23T12:10:47.897Z,9.00
2018-01-23T12:13:14.139Z,8.90
2018-01-23T12:15:40.391Z,8.90
2018-01-23T12:18:06.637Z,8.80
2018-01-23T12:20:32.899Z,9.00
2018-01-23T12:22:59.127Z,8.70
2018-01-23T12:25:25.817Z,9.20
2018-01-23T12:27:52.882Z,9.20
2018-01-23T12:30:19.122Z,9.30
2018-01-23T12:32:45.768Z,9.60
2018-01-23T12:35:13.048Z,9.60
2018-01-23T12:37:39.272Z,9.70
2018-01-23T12:40:05.568Z,9.70
2018-01-23T12:42:31.923Z,9.80
2018-01-23T12:44:58.162Z,10.00
2018-01-23T12:47:24.467Z,10.10
2018-01-23T12:49:51.072Z,9.90
2018-01-23T12:52:17.285Z,9.90
2018-01-23T12:54:43.534Z,9.80
2018-01-23T12:57:09.767Z,10.00
2018-01-23T12:59:35.964Z,10.30
2018-01-23T13:02:02.197Z,10.20
2018-01-23T13:04:28.467Z,10.00
2018-01-23T13:06:54.845Z,10.10
2018-01-23T13:09:21.159Z,10.40
2018-01-23T13:11:47.406Z,10.60
2018-01-23T13:14:13.642Z,10.90
2018-01-23T13:16:39.916Z,11.30
2018-01-23T13:19:06.517Z,11.80
2018-01-23T13:21:32.822Z,11.80
2018-01-23T13:23:59.112Z,11.60
2018-01-23T13:26:25.361Z,11.50
2018-01-23T13:28:51.613Z,11.50
2018-01-23T13:31:18.471Z,11.10
2018-01-23T13:33:46.823Z,10.60
2018-01-23T13:36:13.020Z,10.30
2018-01-23T13:38:39.661Z,9.70
2018-01-23T13:41:06.369Z,9.40
2018-01-23T13:43:32.642Z,9.40
2018-01-23T13:45:58.879Z,9.30
2018-01-23T13:48:25.257Z,9.40
2018-01-23T13:50:52.032Z,9.40
2018-01-23T13:53:18.660Z,9.30
2018-01-23T13:55:44.964Z,9.30
2018-01-23T13:58:11.135Z,9.30
2018-01-23T14:00:37.817Z,9.30
2018-01-23T14:03:04.061Z,9.30
2018-01-23T14:05:31.203Z,9.10
2018-01-23T14:07:57.415Z,9.10
2018-01-23T14:10:23.620Z,9.50
2018-01-23T14:12:49.947Z,9.80
2018-01-23T14:15:16.216Z,10.30
2018-01-23T14:17:42.555Z,11.20
2018-01-23T14:20:08.812Z,12.10
2018-01-23T14:22:36.130Z,13.30
2018-01-23T14:25:02.452Z,13.40
2018-01-23T14:27:28.733Z,13.70
2018-01-23T14:29:55.110Z,13.20
2018-01-23T14:32:21.955Z,12.30
2018-01-23T14:34:48.198Z,11.90
2018-01-23T14:37:14.416Z,11.40
2018-01-23T14:39:40.672Z,11.10
2018-01-23T14:42:06.939Z,10.80
2018-01-23T14:44:33.187Z,10.60
2018-01-23T14:46:59.427Z,10.60
2018-01-23T14:49:25.649Z,10.20
2018-01-23T14:51:51.877Z,10.40
2018-01-23T14:54:18.120Z,10.50
2018-01-23T14:56:44.389Z,10.20
2018-01-23T14:59:10.686Z,9.80
2018-01-23T15:01:36.888Z,9.80
2018-01-23T15:04:03.163Z,9.60
2018-01-23T15:06:29.743Z,9.30
2018-01-23T15:08:56.040Z,9.30
2018-01-23T15:11:22.632Z,9.10
2018-01-23T15:13:48.863Z,9.00
2018-01-23T15:16:15.894Z,9.00
2018-01-23T15:18:42.125Z,8.80
2018-01-23T15:21:08.348Z,8.80
2018-01-23T15:23:34.569Z,8.90
2018-01-23T15:26:00.861Z,8.90
2018-01-23T15:28:27.081Z,8.80
2018-01-23T15:30:53.687Z,8.80
2018-01-23T15:33:19.978Z,8.80
2018-01-23T15:35:46.254Z,8.90
2018-01-23T15:38:12.487Z,8.70
2018-01-23T15:40:38.717Z,8.70
2018-01-23T15:43:04.919Z,8.70
2018-01-23T15:45:31.173Z,8.60
2018-01-23T15:47:57.387Z,8.60
2018-01-23T15:50:23.645Z,8.30
2018-01-23T15:52:49.901Z,8.10
2018-01-23T15:55:16.114Z,8.30
2018-01-23T15:57:42.394Z,8.40
2018-01-23T16:00:08.591Z,8.50
2018-01-23T16:02:34.881Z,8.30
2018-01-23T16:05:01.488Z,8.30
2018-01-23T16:07:27.738Z,8.30
2018-01-23T16:09:53.987Z,8.30
2018-01-23T16:12:20.597Z,8.20
2018-01-23T16:14:46.853Z,8.20
2018-01-23T16:17:13.479Z,8.20
2018-01-23T16:19:40.089Z,8.20
2018-01-23T16:22:06.954Z,8.20
2018-01-23T16:24:34.115Z,8.40
2018-01-23T16:27:00.356Z,8.30
2018-01-23T16:29:26.583Z,8.20
2018-01-23T16:31:52.845Z,8.10
2018-01-23T16:34:19.088Z,8.30
2018-01-23T16:36:45.357Z,8.50
2018-01-23T16:39:12.800Z,8.60
2018-01-23T16:41:39.176Z,8.60
2018-01-23T16:44:05.500Z,8.30
2018-01-23T16:46:31.764Z,8.20
2018-01-23T16:48:58.007Z,8.30
2018-01-23T16:51:24.436Z,8.40
2018-01-23T16:53:51.585Z,8.40
2018-01-23T16:56:17.813Z,8.40
2018-01-23T16:58:44.085Z,8.30
2018-01-23T17:01:10.303Z,8.40
2018-01-23T17:03:36.921Z,8.30
2018-01-23T17:06:03.242Z,8.30
2018-01-23T17:08:29.499Z,8.40
2018-01-23T17:10:56.191Z,8.20
2018-01-23T17:13:22.455Z,8.20
2018-01-23T17:15:49.176Z,8.20
2018-01-23T17:18:15.475Z,8.20
2018-01-23T17:20:41.831Z,8.20
2018-01-23T17:23:08.149Z,8.20
2018-01-23T17:25:34.445Z,8.00
2018-01-23T17:28:00.660Z,8.10
2018-01-23T17:30:26.883Z,8.20
2018-01-23T17:32:59.526Z,8.40
2018-01-23T17:35:25.822Z,8.40
2018-01-23T17:37:52.061Z,8.40
2018-01-23T17:40:18.428Z,8.50
2018-01-23T17:42:44.683Z,8.60
2018-01-23T17:45:10.957Z,8.60
2018-01-23T17:47:37.196Z,8.50
2018-01-23T17:50:03.484Z,8.40
2018-01-23T17:52:29.725Z,8.40
2018-01-23T17:54:55.956Z,8.30
2018-01-23T17:57:22.221Z,8.30
2018-01-23T17:59:48.435Z,8.40
2018-01-23T18:02:14.772Z,8.40
2018-01-23T18:04:41.766Z,8.40
2018-01-23T18:07:08.046Z,8.20
2018-01-23T18:09:34.321Z,8.00
2018-01-23T18:12:00.992Z,7.90
2018-01-23T18:14:27.285Z,7.90
2018-01-23T18:16:53.887Z,8.20
2018-01-23T18:19:22.163Z,8.20
2018-01-23T18:21:48.447Z,8.10
2018-01-23T18:24:14.684Z,8.00
2018-01-23T18:26:41.639Z,7.90
2018-01-23T18:29:07.908Z,7.90
2018-01-23T18:31:34.222Z,7.90
2018-01-23T18:34:01.161Z,7.80
2018-01-23T18:36:27.506Z,7.70
2018-01-23T18:38:53.784Z,7.80
2018-01-23T18:41:20.069Z,7.70
2018-01-23T18:43:46.372Z,7.70
2018-01-23T18:46:12.674Z,7.60
2018-01-23T18:48:39.932Z,7.50
2018-01-23T18:51:06.279Z,7.50
2018-01-23T18:53:32.567Z,7.50
2018-01-23T18:55:59.506Z,7.40
2018-01-23T18:58:26.167Z,7.30
2018-01-23T19:00:53.386Z,7.30
2018-01-23T19:03:19.676Z,7.40
2018-01-23T19:05:46.660Z,7.20
2018-01-23T19:08:13.295Z,7.10
2018-01-23T19:10:39.951Z,7.00
2018-01-23T19:13:06.695Z,7.00
2018-01-23T19:15:33.137Z,7.00
2018-01-23T19:17:59.479Z,6.80
2018-01-23T19:20:25.732Z,6.90
2018-01-23T19:22:52.026Z,6.90
2018-01-23T19:25:18.362Z,6.90
2018-01-23T19:27:44.651Z,6.90
2018-01-23T19:30:10.965Z,6.80
2018-01-23T19:32:37.389Z,6.80
2018-01-23T19:35:03.738Z,6.90
2018-01-23T19:37:30.040Z,6.90
2018-01-23T19:39:56.345Z,6.80
2018-01-23T19:42:22.716Z,7.00
2018-01-23T19:44:49.096Z,7.00
2018-01-23T19:47:16.608Z,6.90
2018-01-23T19:49:42.964Z,6.80
2018-01-23T19:52:09.809Z,6.80
2018-01-23T19:54:36.089Z,6.60
2018-01-23T19:57:02.383Z,6.60
2018-01-23T19:59:28.717Z,6.70
2018-01-23T20:01:55.027Z,6.50
2018-01-23T20:04:21.782Z,6.50
2018-01-23T20:06:48.164Z,6.50
2018-01-23T20:09:14.526Z,6.50
2018-01-23T20:11:41.241Z,6.50
2018-01-23T20:14:07.674Z,6.50
2018-01-23T20:16:34.078Z,6.40
2018-01-23T20:19:00.407Z,6.20
2018-01-23T20:21:26.740Z,6.10
2018-01-23T20:23:53.099Z,6.00
2018-01-23T20:26:19.398Z,5.90
2018-01-23T20:28:45.709Z,5.80
2018-01-23T20:31:12.029Z,5.80
2018-01-23T20:33:38.476Z,5.70
2018-01-23T20:36:04.810Z,5.60
2018-01-23T20:38:31.177Z,5.50
2018-01-23T20:40:58.526Z,5.50
2018-01-23T20:43:24.923Z,5.40
2018-01-23T20:45:51.282Z,5.40
2018-01-23T20:48:18.513Z,5.30
2018-01-23T20:50:44.871Z,5.20
2018-01-23T20:53:11.176Z,5.20
2018-01-23T20:55:37.640Z,5.20
2018-01-23T20:58:03.934Z,5.20
2018-01-23T21:00:30.272Z,5.20
2018-01-23T21:02:56.581Z,5.20
2018-01-23T21:05:22.934Z,5.20
2018-01-23T21:07:49.307Z,5.30
2018-01-23T21:10:15.562Z,5.20
2018-01-23T21:12:41.863Z,5.30
2018-01-23T21:15:08.209Z,5.30
2018-01-23T21:17:34.875Z,5.20
2018-01-23T21:20:01.164Z,5.20
2018-01-23T21:22:27.410Z,5.20
2018-01-23T21:24:54.096Z,5.30
2018-01-23T21:27:20.351Z,5.40
2018-01-23T21:29:46.616Z,5.40
2018-01-23T21:32:12.892Z,5.40
2018-01-23T21:34:39.149Z,5.40
2018-01-23T21:37:06.287Z,5.30
2018-01-23T21:39:32.522Z,5.20
2018-01-23T21:41:58.836Z,5.30
2018-01-23T21:44:25.123Z,5.20
2018-01-23T21:46:51.395Z,5.20
2018-01-23T21:49:17.740Z,5.20
2018-01-23T21:51:43.974Z,5.20
2018-01-23T21:54:10.229Z,5.10
2018-01-23T21:56:36.429Z,5.00
2018-01-23T21:59:02.643Z,5.10
2018-01-23T22:01:28.913Z,4.90
2018-01-23T22:03:55.140Z,4.80
2018-01-23T22:06:21.732Z,4.90
2018-01-23T22:08:47.991Z,4.90
2018-01-23T22:11:14.699Z,4.90
2018-01-23T22:13:40.919Z,5.00
2018-01-23T22:16:07.161Z,4.90
2018-01-23T22:18:33.448Z,5.00
2018-01-23T22:20:59.758Z,5.00
2018-01-23T22:23:26.404Z,5.00
2018-01-23T22:25:52.616Z,5.00
2018-01-23T22:28:19.263Z,4.80
2018-01-23T22:30:45.857Z,4.70
2018-01-23T22:33:12.095Z,4.70
2018-01-23T22:35:38.355Z,4.70
2018-01-23T22:38:04.926Z,4.80
2018-01-23T22:40:31.148Z,4.80
2018-01-23T22:42:57.427Z,4.80
2018-01-23T22:45:24.632Z,4.80
2018-01-23T22:47:50.895Z,4.80
2018-01-23T22:50:17.131Z,4.90
2018-01-23T22:52:43.334Z,4.80
2018-01-23T22:55:09.587Z,4.80
2018-01-23T22:57:35.828Z,4.80
2018-01-23T23:00:02.457Z,4.80
2018-01-23T23:02:28.668Z,4.80
2018-01-23T23:04:54.885Z,4.90
2018-01-23T23:07:21.187Z,4.80
2018-01-23T23:09:47.412Z,4.80
2018-01-23T23:12:14.243Z,4.90
2018-01-23T23:14:40.476Z,5.10
2018-01-23T23:17:06.665Z,5.10
2018-01-23T23:19:32.882Z,5.20
2018-01-23T23:21:59.094Z,5.30
2018-01-23T23:24:25.309Z,5.30
2018-01-23T23:26:51.498Z,5.30
2018-01-23T23:29:17.727Z,5.30
2018-01-23T23:31:44.333Z,5.60
2018-01-23T23:34:12.374Z,5.60
2018-01-23T23:36:38.638Z,5.60
2018-01-23T23:39:04.859Z,5.40
2018-01-23T23:41:31.087Z,5.40
2018-01-23T23:43:57.758Z,5.30
2018-01-23T23:46:24.010Z,5.30
2018-01-23T23:48:50.286Z,5.40
2018-01-23T23:51:16.979Z,5.60
2018-01-23T23:53:43.269Z,5.60
2018-01-23T23:56:09.541Z,5.70
2018-01-23T23:58:35.735Z,5.80
